createdAt,value
2024-02-28T00:01:29.832Z,21.65
2024-02-28T00:06:32.868Z,21.95
2024-02-28T00:11:37.850Z,22.00
2024-02-28T00:16:43.864Z,20.42
2024-02-28T00:21:46.934Z,20.90
2024-02-28T00:26:49.935Z,21.88
2024-02-28T00:31:54.345Z,21.77
2024-02-28T00:36:57.447Z,20.52
2024-02-28T00:42:00.352Z,22.20
2024-02-28T00:47:04.720Z,22.50
2024-02-28T00:52:08.082Z,21.88
2024-02-28T00:57:11.101Z,21.45
2024-02-28T01:02:15.435Z,21.25
2024-02-28T01:07:18.343Z,20.90
2024-02-28T01:12:21.521Z,20.70
2024-02-28T01:17:28.204Z,19.60
2024-02-28T01:22:31.257Z,19.90
2024-02-28T01:27:34.463Z,20.58
2024-02-28T01:32:39.388Z,18.65
2024-02-28T01:37:42.329Z,19.33
2024-02-28T01:42:45.400Z,19.77
2024-02-28T01:47:50.135Z,19.25
2024-02-28T01:52:55.698Z,19.83
2024-02-28T01:57:58.770Z,18.17
2024-02-28T02:03:06.403Z,17.92
2024-02-28T02:08:11.948Z,18.23
2024-02-28T02:13:14.917Z,18.10
2024-02-28T02:18:19.378Z,18.42
2024-02-28T02:23:23.807Z,18.60
2024-02-28T02:28:26.748Z,17.80
2024-02-28T02:33:29.591Z,16.98
2024-02-28T02:38:36.376Z,16.60
2024-02-28T02:43:39.331Z,17.02
2024-02-28T02:48:42.352Z,18.50
2024-02-28T02:53:46.674Z,15.68
2024-02-28T02:58:49.776Z,16.77
2024-02-28T03:03:53.857Z,16.17
2024-02-28T03:08:58.246Z,15.43
2024-02-28T03:14:01.135Z,15.27
2024-02-28T03:19:04.952Z,15.70
2024-02-28T03:24:09.533Z,14.27
2024-02-28T03:29:14.585Z,14.65
2024-02-28T03:34:17.495Z,14.65
2024-02-28T03:39:24.453Z,16.23
2024-02-28T03:44:27.390Z,14.45
2024-02-28T03:49:30.299Z,15.65
2024-02-28T03:54:34.769Z,14.93
2024-02-28T03:59:39.807Z,14.65
2024-02-28T04:04:45.528Z,14.43
2024-02-28T04:09:50.133Z,14.38
2024-02-28T04:14:55.257Z,15.32
2024-02-28T04:19:59.097Z,14.90
2024-02-28T04:25:03.730Z,15.77
2024-02-28T04:30:07.967Z,15.15
2024-02-28T04:35:10.974Z,15.38
2024-02-28T04:40:16.596Z,15.70
2024-02-28T04:45:19.768Z,17.25
2024-02-28T04:50:22.746Z,15.80
2024-02-28T04:55:27.049Z,15.77
2024-02-28T05:00:29.998Z,15.60
2024-02-28T05:05:32.927Z,15.85
2024-02-28T05:10:37.193Z,17.15
2024-02-28T05:15:40.346Z,16.70
2024-02-28T05:20:43.224Z,16.15
2024-02-28T05:25:49.093Z,18.35
2024-02-28T05:30:52.198Z,15.98
2024-02-28T05:35:55.292Z,16.80
2024-02-28T05:41:00.732Z,16.35
2024-02-28T05:46:03.818Z,17.42
2024-02-28T05:51:07.205Z,16.67
2024-02-28T05:56:15.650Z,17.75
2024-02-28T06:01:19.867Z,16.45
2024-02-28T06:06:23.639Z,16.73
2024-02-28T06:11:27.947Z,16.95
2024-02-28T06:16:30.857Z,15.75
2024-02-28T06:21:33.819Z,15.93
2024-02-28T06:26:40.957Z,16.17
2024-02-28T06:31:45.361Z,14.68
2024-02-28T06:36:48.380Z,15.02
2024-02-28T06:41:58.865Z,13.43
2024-02-28T06:47:03.052Z,13.97
2024-02-28T06:52:06.851Z,13.88
2024-02-28T06:57:12.518Z,13.48
2024-02-28T07:02:15.496Z,13.80
2024-02-28T07:07:18.388Z,13.15
2024-02-28T07:12:22.832Z,13.18
2024-02-28T07:17:27.711Z,13.43
2024-02-28T07:22:31.775Z,14.23
2024-02-28T07:27:36.016Z,12.48
2024-02-28T07:32:38.959Z,14.32
2024-02-28T07:37:41.869Z,13.35
2024-02-28T07:42:46.362Z,13.73
2024-02-28T07:47:50.658Z,15.10
2024-02-28T07:52:56.103Z,13.63
2024-02-28T07:58:00.625Z,15.10
2024-02-28T08:03:03.572Z,16.88
2024-02-28T08:08:07.077Z,16.33
2024-02-28T08:13:12.626Z,15.93
2024-02-28T08:18:16.296Z,18.08
2024-02-28T08:23:20.423Z,16.50
2024-02-28T08:28:24.787Z,17.48
2024-02-28T08:33:28.042Z,17.73
2024-02-28T08:38:31.313Z,19.50
2024-02-28T08:43:35.881Z,19.60
2024-02-28T08:48:39.229Z,18.75
2024-02-28T08:53:42.275Z,19.10
2024-02-28T08:58:46.974Z,19.63
2024-02-28T09:03:49.924Z,19.35
2024-02-28T09:08:52.903Z,17.83
2024-02-28T09:13:57.133Z,18.13
2024-02-28T09:19:00.060Z,17.13
2024-02-28T09:24:03.231Z,17.23
2024-02-28T09:29:07.462Z,19.85
2024-02-28T09:34:11.226Z,18.98
2024-02-28T09:39:15.984Z,16.70
2024-02-28T09:44:22.343Z,18.10
2024-02-28T09:49:28.870Z,17.80
2024-02-28T09:54:31.953Z,18.15
2024-02-28T09:59:47.037Z,17.75
2024-02-28T10:04:58.655Z,17.40
2024-02-28T10:10:01.705Z,16.88
2024-02-28T10:15:07.285Z,16.02
2024-02-28T10:20:11.468Z,16.20
2024-02-28T10:25:14.404Z,16.15
2024-02-28T10:30:18.985Z,16.10
2024-02-28T10:35:26.289Z,16.23
2024-02-28T10:40:30.238Z,16.65
2024-02-28T10:50:46.664Z,15.48
2024-02-28T10:55:50.872Z,15.50
2024-02-28T11:00:55.485Z,15.32
2024-02-28T11:05:58.565Z,14.20
2024-02-28T11:11:05.329Z,13.93
2024-02-28T11:16:14.065Z,13.13
2024-02-28T11:21:17.678Z,14.55
2024-02-28T11:26:21.677Z,13.98
2024-02-28T11:31:25.993Z,16.20
2024-02-28T11:36:29.613Z,15.27
2024-02-28T11:41:33.032Z,15.30
2024-02-28T11:46:37.586Z,15.52
2024-02-28T11:51:43.097Z,13.90
2024-02-28T11:56:46.871Z,14.75
2024-02-28T12:01:52.796Z,16.65
2024-02-28T12:06:56.018Z,15.40
2024-02-28T12:12:02.634Z,16.25
2024-02-28T12:17:07.060Z,15.50
2024-02-28T12:22:10.125Z,15.00
2024-02-28T12:27:13.163Z,14.10
2024-02-28T12:32:19.015Z,13.95
2024-02-28T12:37:21.981Z,13.95
2024-02-28T12:42:24.919Z,13.63
2024-02-28T12:47:31.718Z,13.80
2024-02-28T12:52:34.708Z,14.05
2024-02-28T12:57:40.400Z,14.00
2024-02-28T13:02:45.021Z,12.98
2024-02-28T13:07:47.867Z,14.35
2024-02-28T13:12:54.388Z,12.82
2024-02-28T13:18:09.748Z,13.32
2024-02-28T13:23:27.548Z,14.98
2024-02-28T13:28:36.585Z,12.90
2024-02-28T13:33:42.801Z,13.13
2024-02-28T13:38:46.068Z,12.88
2024-02-28T13:44:53.766Z,12.50
2024-02-28T13:50:17.187Z,12.23
2024-02-28T13:55:20.960Z,11.63
2024-02-28T14:00:24.970Z,11.35
2024-02-28T14:05:29.535Z,11.82
2024-02-28T14:10:32.727Z,12.57
2024-02-28T14:15:37.601Z,14.02
2024-02-28T14:20:43.517Z,11.85
2024-02-28T14:25:46.834Z,9.35
2024-02-28T14:30:50.937Z,9.90
2024-02-28T14:35:55.556Z,9.80
2024-02-28T14:40:58.568Z,10.07
2024-02-28T14:46:03.001Z,9.60
2024-02-28T14:51:07.796Z,10.73
2024-02-28T14:56:10.933Z,11.30
2024-02-28T15:01:14.114Z,11.55
2024-02-28T15:06:19.209Z,10.95
2024-02-28T15:11:22.396Z,11.85
2024-02-28T15:16:25.804Z,12.20
2024-02-28T15:21:30.207Z,11.32
2024-02-28T15:26:42.219Z,10.43
2024-02-28T15:31:49.292Z,10.88
2024-02-28T15:36:53.555Z,9.95
2024-02-28T15:41:56.588Z,10.65
2024-02-28T15:46:59.455Z,9.38
2024-02-28T15:52:04.412Z,9.88
2024-02-28T15:57:10.875Z,11.02
2024-02-28T16:02:13.821Z,11.50
2024-02-28T16:07:18.276Z,11.38
2024-02-28T16:12:21.677Z,13.25
2024-02-28T16:17:26.912Z,12.77
2024-02-28T16:22:31.552Z,13.98
2024-02-28T16:27:35.879Z,13.75
2024-02-28T16:32:39.521Z,14.35
2024-02-28T16:37:46.749Z,15.18
2024-02-28T16:42:52.605Z,14.85
2024-02-28T16:47:55.576Z,14.18
2024-02-28T16:52:59.962Z,15.38
2024-02-28T16:58:05.003Z,18.13
2024-02-28T17:03:08.161Z,15.18
2024-02-28T17:08:12.540Z,16.10
2024-02-28T17:13:15.574Z,15.93
2024-02-28T17:18:18.590Z,15.95
2024-02-28T17:23:25.379Z,16.05
2024-02-28T17:28:28.950Z,16.30
2024-02-28T17:33:32.029Z,15.27
2024-02-28T17:38:36.995Z,16.15
2024-02-28T17:43:39.996Z,17.50
2024-02-28T17:48:44.633Z,17.60
2024-02-28T17:53:48.968Z,16.15
2024-02-28T17:58:51.848Z,15.80
2024-02-28T18:03:54.760Z,16.80
2024-02-28T18:08:59.477Z,16.08
2024-02-28T18:14:02.371Z,16.20
2024-02-28T18:19:05.778Z,17.05
2024-02-28T18:24:10.331Z,16.65
2024-02-28T18:29:13.425Z,18.20
2024-02-28T18:34:16.595Z,18.33
2024-02-28T18:39:20.943Z,16.90
2024-02-28T18:44:23.958Z,15.88
2024-02-28T18:49:27.211Z,15.88
2024-02-28T18:54:31.842Z,15.43
2024-02-28T18:59:36.031Z,16.38
2024-02-28T19:04:40.212Z,17.70
2024-02-28T19:09:44.946Z,16.77
2024-02-28T19:14:48.247Z,17.13
2024-02-28T19:20:08.275Z,23.50
2024-02-28T19:25:12.747Z,21.15
2024-02-28T19:30:15.827Z,15.60
2024-02-28T19:35:18.763Z,16.25
2024-02-28T19:40:23.082Z,15.00
2024-02-28T19:45:26.135Z,15.02
2024-02-28T19:50:29.165Z,15.30
2024-02-28T19:55:33.447Z,15.55
2024-02-28T20:00:37.036Z,14.07
2024-02-28T20:05:40.977Z,14.10
2024-02-28T20:10:45.678Z,15.18
2024-02-28T20:15:48.669Z,13.00
2024-02-28T20:20:51.853Z,13.35
2024-02-28T20:25:56.380Z,14.40
2024-02-28T20:30:59.410Z,15.05
2024-02-28T20:36:04.737Z,13.95
2024-02-28T20:41:09.056Z,13.63
2024-02-28T20:46:12.015Z,15.60
2024-02-28T20:51:15.017Z,14.95
2024-02-28T20:56:19.948Z,15.77
2024-02-28T21:01:25.327Z,15.85
2024-02-28T21:06:30.314Z,15.73
2024-02-28T21:11:37.356Z,16.85
2024-02-28T21:16:40.327Z,17.13
2024-02-28T21:21:43.502Z,18.45
2024-02-28T21:26:49.556Z,17.67
2024-02-28T21:31:52.562Z,18.52
2024-02-28T21:36:55.580Z,19.52
2024-02-28T21:42:00.094Z,18.85
2024-02-28T21:47:03.268Z,20.05
2024-02-28T21:52:06.322Z,19.25
2024-02-28T21:57:12.130Z,19.90
2024-02-28T22:02:15.091Z,19.75
2024-02-28T22:07:18.062Z,18.80
2024-02-28T22:12:22.387Z,19.48
2024-02-28T22:17:25.268Z,19.15
2024-02-28T22:22:29.957Z,18.52
2024-02-28T22:27:34.248Z,20.02
2024-02-28T22:32:37.166Z,19.98
2024-02-28T22:37:40.079Z,20.52
2024-02-28T22:42:44.684Z,20.17
2024-02-28T22:47:47.598Z,20.05
2024-02-28T22:52:50.510Z,21.17
2024-02-28T22:57:54.897Z,20.55
2024-02-28T23:03:00.042Z,19.95
2024-02-28T23:08:03.721Z,19.10
2024-02-28T23:13:08.538Z,19.33
2024-02-28T23:18:11.992Z,19.83
2024-02-28T23:23:14.991Z,20.60
2024-02-28T23:28:19.209Z,20.17
2024-02-28T23:33:22.343Z,20.52
2024-02-28T23:38:25.187Z,18.80
2024-02-28T23:43:29.406Z,20.05
2024-02-28T23:48:32.308Z,19.80
2024-02-28T23:53:35.235Z,19.70
2024-02-28T23:58:39.548Z,20.23
